createdAt,value
2019-05-23T00:01:53.227Z,2.20
2019-05-23T00:04:48.007Z,2.10
2019-05-23T00:07:39.265Z,2.30
2019-05-23T00:10:37.041Z,2.00
2019-05-23T00:13:44.128Z,1.75
2019-05-23T00:16:22.068Z,1.90
2019-05-23T00:18:56.496Z,2.02
2019-05-23T00:21:31.066Z,2.10
2019-05-23T00:24:04.379Z,1.95
2019-05-23T00:26:38.118Z,2.10
2019-05-23T00:29:12.504Z,2.30
2019-05-23T00:31:58.406Z,2.20
2019-05-23T00:34:34.102Z,1.90
2019-05-23T00:37:09.544Z,2.05
2019-05-23T00:39:43.340Z,1.62
2019-05-23T00:42:16.026Z,2.05
2019-05-23T00:44:49.182Z,2.05
2019-05-23T00:49:53.636Z,2.10
2019-05-23T00:54:58.392Z,2.15
2019-05-23T00:57:31.824Z,2.00
2019-05-23T01:00:06.979Z,2.10
2019-05-23T01:02:39.667Z,2.00
2019-05-23T01:05:13.856Z,1.98
2019-05-23T01:07:46.632Z,1.87
2019-05-23T01:10:20.932Z,2.05
2019-05-23T01:12:54.039Z,1.70
2019-05-23T01:15:29.832Z,2.00
2019-05-23T01:18:02.374Z,2.65
2019-05-23T01:20:50.988Z,1.95
2019-05-23T01:23:23.897Z,2.20
2019-05-23T01:25:57.414Z,1.80
2019-05-23T01:28:30.494Z,1.92
2019-05-23T01:31:06.885Z,2.30
2019-05-23T01:33:42.362Z,1.92
2019-05-23T01:36:15.635Z,2.30
2019-05-23T01:41:21.516Z,1.90
2019-05-23T01:43:55.676Z,2.17
2019-05-23T01:46:28.489Z,2.10
2019-05-23T01:49:01.061Z,2.05
2019-05-23T01:51:34.793Z,2.02
2019-05-23T01:54:07.920Z,1.98
2019-05-23T01:56:41.484Z,2.02
2019-05-23T01:59:14.798Z,1.82
2019-05-23T02:01:47.707Z,1.70
2019-05-23T02:04:20.880Z,1.80
2019-05-23T02:06:53.562Z,1.72
2019-05-23T02:09:26.976Z,1.60
2019-05-23T02:12:00.457Z,1.75
2019-05-23T02:14:33.745Z,1.77
2019-05-23T02:19:39.587Z,1.90
2019-05-23T02:22:13.526Z,1.90
2019-05-23T02:24:47.004Z,1.70
2019-05-23T02:27:20.667Z,1.87
2019-05-23T02:29:55.845Z,1.90
2019-05-23T02:32:29.509Z,1.60
2019-05-23T02:35:02.018Z,2.00
2019-05-23T02:38:02.769Z,1.98
2019-05-23T02:41:12.599Z,2.02
2019-05-23T02:43:51.663Z,2.15
2019-05-23T02:46:31.802Z,2.15
2019-05-23T02:49:08.110Z,2.10
2019-05-23T02:51:43.793Z,2.50
2019-05-23T02:54:17.021Z,2.40
2019-05-23T02:56:50.101Z,2.40
2019-05-23T02:59:39.500Z,2.62
2019-05-23T03:03:14.800Z,2.45
2019-05-23T03:05:48.609Z,2.30
2019-05-23T03:08:21.862Z,2.50
2019-05-23T03:11:00.794Z,2.40
2019-05-23T03:13:34.821Z,2.00
2019-05-23T03:16:08.038Z,2.05
2019-05-23T03:21:17.815Z,1.90
2019-05-23T03:23:50.910Z,2.08
2019-05-23T03:26:58.482Z,2.02
2019-05-23T03:29:33.808Z,2.08
2019-05-23T03:32:39.041Z,2.20
2019-05-23T03:35:16.124Z,2.27
2019-05-23T03:37:50.013Z,2.08
2019-05-23T03:40:23.307Z,2.15
2019-05-23T03:42:56.562Z,2.00
2019-05-23T03:45:38.468Z,2.05
2019-05-23T03:48:08.959Z,2.17
2019-05-23T03:50:41.918Z,2.22
2019-05-23T03:53:15.250Z,2.02
2019-05-23T03:55:50.618Z,2.15
2019-05-23T03:58:24.011Z,2.00
2019-05-23T04:00:57.542Z,2.15
2019-05-23T04:03:30.903Z,1.82
2019-05-23T04:08:35.894Z,2.00
2019-05-23T04:11:08.637Z,1.82
2019-05-23T04:13:41.941Z,2.40
2019-05-23T04:16:14.754Z,1.92
2019-05-23T04:18:47.720Z,2.25
2019-05-23T04:21:23.996Z,2.20
2019-05-23T04:23:56.443Z,2.50
2019-05-23T04:26:29.419Z,2.40
2019-05-23T04:29:02.110Z,2.27
2019-05-23T04:31:35.260Z,2.47
2019-05-23T04:36:39.503Z,2.37
2019-05-23T04:39:12.275Z,2.50
2019-05-23T04:41:45.207Z,2.35
2019-05-23T04:44:18.205Z,2.05
2019-05-23T04:46:51.293Z,1.47
2019-05-23T04:49:23.837Z,1.98
2019-05-23T04:51:56.688Z,2.37
2019-05-23T04:54:29.766Z,1.80
2019-05-23T04:57:02.920Z,1.77
2019-05-23T05:02:23.042Z,1.42
2019-05-23T05:04:41.750Z,1.70
2019-05-23T05:07:14.432Z,1.50
2019-05-23T05:09:47.942Z,1.55
2019-05-23T05:12:21.434Z,1.57
2019-05-23T05:14:55.660Z,1.70
2019-05-23T05:17:28.477Z,2.00
2019-05-23T05:20:00.698Z,1.40
2019-05-23T05:22:33.733Z,1.70
2019-05-23T05:25:07.762Z,1.50
2019-05-23T05:27:40.704Z,1.62
2019-05-23T05:30:13.663Z,2.33
2019-05-23T05:32:46.601Z,2.58
2019-05-23T05:35:19.151Z,1.80
2019-05-23T05:37:51.603Z,2.47
2019-05-23T05:40:25.411Z,2.35
2019-05-23T05:42:58.587Z,2.50
2019-05-23T05:48:02.708Z,1.82
2019-05-23T05:50:36.631Z,1.98
2019-05-23T05:53:09.854Z,1.82
2019-05-23T05:58:14.403Z,2.45
2019-05-23T06:00:52.912Z,3.87
2019-05-23T06:03:25.723Z,2.00
2019-05-23T06:06:20.207Z,1.70
2019-05-23T06:08:57.406Z,2.00
2019-05-23T06:11:30.617Z,2.08
2019-05-23T06:16:35.386Z,1.77
2019-05-23T06:19:08.389Z,2.20
2019-05-23T06:21:41.715Z,2.52
2019-05-23T06:24:14.431Z,2.50
2019-05-23T06:26:47.798Z,2.80
2019-05-23T06:29:20.638Z,3.42
2019-05-23T06:31:54.146Z,4.08
2019-05-23T06:34:27.137Z,3.17
2019-05-23T06:37:00.213Z,3.33
2019-05-23T06:39:32.922Z,2.65
2019-05-23T06:42:05.914Z,2.83
2019-05-23T06:44:39.517Z,3.10
2019-05-23T06:47:12.384Z,3.12
2019-05-23T06:49:45.297Z,2.85
2019-05-23T06:52:18.086Z,3.10
2019-05-23T06:54:51.017Z,2.85
2019-05-23T06:57:24.261Z,2.60
2019-05-23T06:59:57.256Z,3.42
2019-05-23T07:02:32.103Z,3.02
2019-05-23T07:05:04.302Z,2.65
2019-05-23T07:07:37.640Z,2.22
2019-05-23T07:10:10.743Z,3.05
2019-05-23T07:15:15.257Z,2.90
2019-05-23T07:17:48.100Z,3.25
2019-05-23T07:20:20.661Z,3.10
2019-05-23T07:22:53.293Z,2.95
2019-05-23T07:25:27.527Z,3.33
2019-05-23T07:28:00.237Z,2.95
2019-05-23T07:30:33.245Z,3.15
2019-05-23T07:35:37.507Z,3.00
2019-05-23T07:38:10.366Z,2.75
2019-05-23T07:40:43.333Z,2.40
2019-05-23T07:43:16.001Z,2.12
2019-05-23T07:45:53.899Z,2.65
2019-05-23T07:48:26.660Z,2.20
2019-05-23T07:50:59.965Z,2.55
2019-05-23T07:54:02.984Z,2.83
2019-05-23T07:56:37.430Z,2.50
2019-05-23T07:59:10.031Z,3.00
2019-05-23T08:01:46.289Z,3.35
2019-05-23T08:04:21.922Z,2.72
2019-05-23T08:06:54.362Z,2.72
2019-05-23T08:09:27.190Z,2.92
2019-05-23T08:11:59.611Z,2.30
2019-05-23T08:14:32.472Z,3.08
2019-05-23T08:19:49.237Z,2.98
2019-05-23T08:22:10.703Z,2.60
2019-05-23T08:24:43.301Z,2.33
2019-05-23T08:27:16.449Z,2.50
2019-05-23T08:32:20.391Z,2.80
2019-05-23T08:34:53.077Z,2.72
2019-05-23T08:37:25.646Z,2.20
2019-05-23T08:39:58.736Z,2.40
2019-05-23T08:42:31.813Z,1.98
2019-05-23T08:47:37.003Z,2.10
2019-05-23T08:50:11.639Z,2.00
2019-05-23T08:52:43.808Z,2.40
2019-05-23T08:55:23.942Z,1.90
2019-05-23T08:57:57.106Z,2.17
2019-05-23T09:00:34.298Z,2.02
2019-05-23T09:03:07.830Z,1.42
2019-05-23T09:05:40.752Z,1.60
2019-05-23T09:10:47.803Z,1.82
2019-05-23T09:13:20.805Z,1.95
2019-05-23T09:18:26.581Z,2.13
2019-05-23T09:20:59.119Z,1.98
2019-05-23T09:23:32.297Z,1.80
2019-05-23T09:26:05.063Z,1.80
2019-05-23T09:28:38.178Z,1.98
2019-05-23T09:31:11.461Z,2.10
2019-05-23T09:33:43.761Z,3.00
2019-05-23T09:36:16.595Z,2.35
2019-05-23T09:38:49.087Z,1.75
2019-05-23T09:41:22.133Z,1.72
2019-05-23T09:43:56.675Z,1.55
2019-05-23T09:46:31.381Z,1.52
2019-05-23T09:49:03.790Z,1.50
2019-05-23T09:51:36.514Z,1.72
2019-05-23T09:54:08.916Z,1.37
2019-05-23T09:56:42.742Z,1.47
2019-05-23T09:59:16.823Z,1.65
2019-05-23T10:04:21.565Z,1.30
2019-05-23T10:06:54.036Z,1.20
2019-05-23T10:09:27.347Z,1.20
2019-05-23T10:11:59.792Z,1.10
2019-05-23T10:14:34.824Z,1.22
2019-05-23T10:17:08.034Z,1.30
2019-05-23T10:22:12.359Z,1.10
2019-05-23T10:24:45.009Z,1.10
2019-05-23T10:27:18.794Z,1.00
2019-05-23T10:29:51.485Z,0.93
2019-05-23T10:32:24.334Z,1.02
2019-05-23T10:37:28.953Z,1.30
2019-05-23T10:42:39.743Z,1.00
2019-05-23T10:45:13.268Z,0.90
2019-05-23T10:48:07.184Z,0.88
2019-05-23T10:50:44.586Z,0.90
2019-05-23T10:53:19.433Z,1.50
2019-05-23T10:55:52.537Z,1.00
2019-05-23T11:00:58.217Z,1.05
2019-05-23T11:03:31.141Z,1.30
2019-05-23T11:08:37.674Z,1.40
2019-05-23T11:11:14.266Z,1.50
2019-05-23T11:13:45.592Z,1.25
2019-05-23T11:16:19.697Z,1.62
2019-05-23T11:18:52.539Z,1.67
2019-05-23T11:21:25.667Z,1.87
2019-05-23T11:23:58.892Z,1.45
2019-05-23T11:26:32.015Z,1.60
2019-05-23T11:29:06.190Z,1.60
2019-05-23T11:31:39.015Z,1.52
2019-05-23T11:34:11.784Z,1.55
2019-05-23T11:36:45.343Z,1.30
2019-05-23T11:39:18.447Z,1.65
2019-05-23T11:41:51.403Z,1.90
2019-05-23T11:46:55.285Z,2.10
2019-05-23T11:51:58.486Z,1.80
2019-05-23T11:54:31.474Z,1.55
2019-05-23T11:59:34.787Z,1.52
2019-05-23T12:02:33.078Z,1.40
2019-05-23T12:05:09.991Z,1.80
2019-05-23T12:07:43.837Z,1.40
2019-05-23T12:10:16.875Z,1.40
2019-05-23T12:12:49.290Z,1.57
2019-05-23T12:15:26.614Z,1.35
2019-05-23T12:17:59.355Z,1.60
2019-05-23T12:23:10.553Z,1.90
2019-05-23T12:25:37.609Z,1.80
2019-05-23T12:30:42.174Z,1.95
2019-05-23T12:33:15.124Z,2.30
2019-05-23T12:35:47.718Z,1.70
2019-05-23T12:38:20.313Z,1.90
2019-05-23T12:40:53.589Z,1.70
2019-05-23T12:43:25.949Z,1.85
2019-05-23T12:45:58.432Z,1.90
2019-05-23T12:48:43.642Z,1.70
2019-05-23T12:51:16.691Z,1.70
2019-05-23T12:53:49.681Z,1.70
2019-05-23T12:56:22.949Z,1.67
2019-05-23T12:58:55.891Z,1.82
2019-05-23T13:01:29.948Z,1.45
2019-05-23T13:04:02.398Z,1.50
2019-05-23T13:06:35.069Z,1.67
2019-05-23T13:11:40.358Z,1.87
2019-05-23T13:16:45.033Z,1.67
2019-05-23T13:19:19.212Z,1.70
2019-05-23T13:21:51.938Z,1.90
2019-05-23T13:24:25.604Z,1.72
2019-05-23T13:26:58.640Z,1.70
2019-05-23T13:29:31.345Z,1.98
2019-05-23T13:32:03.587Z,2.30
2019-05-23T13:34:36.645Z,2.10
2019-05-23T13:37:10.927Z,2.02
2019-05-23T13:39:43.447Z,2.10
2019-05-23T13:42:16.345Z,2.30
2019-05-23T13:47:20.755Z,2.00
2019-05-23T13:49:53.438Z,2.30
2019-05-23T13:54:58.697Z,2.00
2019-05-23T14:00:02.564Z,2.30
2019-05-23T14:02:35.996Z,2.35
2019-05-23T14:05:09.391Z,2.40
2019-05-23T14:07:42.509Z,1.92
2019-05-23T14:10:15.768Z,2.67
2019-05-23T14:12:48.755Z,2.00
2019-05-23T14:15:23.599Z,2.10
2019-05-23T14:17:56.525Z,1.80
2019-05-23T14:20:29.373Z,1.90
2019-05-23T14:23:07.526Z,1.90
2019-05-23T14:25:40.668Z,2.10
2019-05-23T14:28:13.674Z,2.02
2019-05-23T14:31:11.114Z,2.02
2019-05-23T14:34:05.410Z,1.92
2019-05-23T14:37:09.159Z,2.37
2019-05-23T14:39:54.896Z,2.40
2019-05-23T14:42:46.815Z,1.80
2019-05-23T14:45:42.571Z,2.00
2019-05-23T14:48:34.473Z,2.47
2019-05-23T14:51:29.077Z,2.52
2019-05-23T14:54:10.480Z,2.77
2019-05-23T14:56:43.558Z,2.30
2019-05-23T14:59:16.663Z,2.27
2019-05-23T15:01:49.722Z,2.70
2019-05-23T15:04:23.828Z,2.60
2019-05-23T15:06:56.345Z,2.20
2019-05-23T15:09:29.117Z,2.60
2019-05-23T15:12:01.389Z,2.47
2019-05-23T15:14:33.798Z,2.67
2019-05-23T15:17:06.090Z,2.75
2019-05-23T15:19:44.743Z,2.55
2019-05-23T15:22:13.161Z,2.70
2019-05-23T15:24:45.644Z,2.72
2019-05-23T15:27:19.055Z,2.65
2019-05-23T15:29:51.554Z,3.10
2019-05-23T15:32:24.112Z,3.50
2019-05-23T15:34:56.947Z,3.10
2019-05-23T15:37:29.849Z,2.40
2019-05-23T15:42:33.683Z,2.90
2019-05-23T15:45:06.852Z,3.55
2019-05-23T15:47:39.476Z,2.75
2019-05-23T15:50:14.975Z,2.85
2019-05-23T15:52:54.932Z,3.20
2019-05-23T15:55:52.591Z,3.08
2019-05-23T15:58:42.326Z,3.15
2019-05-23T16:01:25.563Z,4.15
2019-05-23T16:04:01.483Z,3.40
2019-05-23T16:06:34.871Z,3.20
2019-05-23T16:09:27.565Z,3.35
2019-05-23T16:11:46.328Z,4.67
2019-05-23T16:14:19.481Z,4.58
2019-05-23T16:16:56.406Z,5.17
2019-05-23T16:19:27.813Z,3.72
2019-05-23T16:22:00.880Z,4.08
2019-05-23T16:27:06.792Z,3.47
2019-05-23T16:29:40.758Z,3.65
2019-05-23T16:32:13.747Z,3.35
2019-05-23T16:37:18.548Z,3.87
2019-05-23T16:39:51.492Z,3.20
2019-05-23T16:42:24.138Z,3.20
2019-05-23T16:44:57.075Z,4.45
2019-05-23T16:47:30.003Z,3.35
2019-05-23T16:50:03.451Z,3.95
2019-05-23T16:52:36.883Z,3.85
2019-05-23T16:55:17.800Z,3.77
2019-05-23T16:57:54.905Z,3.52
2019-05-23T17:00:45.035Z,3.62
2019-05-23T17:03:34.211Z,3.70
2019-05-23T17:06:32.296Z,3.77
2019-05-23T17:09:24.318Z,3.62
2019-05-23T17:12:22.070Z,3.90
2019-05-23T17:15:04.094Z,3.40
2019-05-23T17:18:02.153Z,3.80
2019-05-23T17:20:41.684Z,3.98
2019-05-23T17:23:28.557Z,4.10
2019-05-23T17:26:09.241Z,3.87
2019-05-23T17:28:45.041Z,3.70
2019-05-23T17:31:19.077Z,4.30
2019-05-23T17:33:51.455Z,3.85
2019-05-23T17:36:24.623Z,3.58
2019-05-23T17:38:57.331Z,4.37
2019-05-23T17:41:30.516Z,4.37
2019-05-23T17:44:02.982Z,4.50
2019-05-23T17:46:35.964Z,4.28
2019-05-23T17:49:08.895Z,4.40
2019-05-23T17:51:42.008Z,4.58
2019-05-23T17:54:15.491Z,4.65
2019-05-23T17:56:48.325Z,5.10
2019-05-23T17:59:21.195Z,4.92
2019-05-23T18:01:54.740Z,4.97
2019-05-23T18:04:28.319Z,4.55
2019-05-23T18:07:01.293Z,4.53
2019-05-23T18:09:34.194Z,4.28
2019-05-23T18:12:08.601Z,4.72
2019-05-23T18:14:41.884Z,4.10
2019-05-23T18:19:45.810Z,4.90
2019-05-23T18:22:19.699Z,4.50
2019-05-23T18:24:53.049Z,6.70
2019-05-23T18:27:25.441Z,6.00
2019-05-23T18:29:58.022Z,5.80
2019-05-23T18:32:31.619Z,5.42
2019-05-23T18:35:04.923Z,5.60
2019-05-23T18:37:37.445Z,5.72
2019-05-23T18:40:10.605Z,6.00
2019-05-23T18:42:43.105Z,5.60
2019-05-23T18:45:16.790Z,4.72
2019-05-23T18:47:49.459Z,5.12
2019-05-23T18:50:22.666Z,4.58
2019-05-23T18:55:26.918Z,3.92
2019-05-23T18:57:59.894Z,3.95
2019-05-23T19:01:02.601Z,4.20
2019-05-23T19:03:36.056Z,4.30
2019-05-23T19:08:39.781Z,4.42
2019-05-23T19:11:20.874Z,3.92
2019-05-23T19:13:47.132Z,4.40
2019-05-23T19:16:20.085Z,4.17
2019-05-23T19:18:52.744Z,4.28
2019-05-23T19:21:26.833Z,4.00
2019-05-23T19:23:59.893Z,3.77
2019-05-23T19:26:32.724Z,4.75
2019-05-23T19:29:06.861Z,4.72
2019-05-23T19:31:39.909Z,4.40
2019-05-23T19:34:12.620Z,3.95
2019-05-23T19:36:45.223Z,4.28
2019-05-23T19:39:18.110Z,4.00
2019-05-23T19:41:50.712Z,3.83
2019-05-23T19:44:23.164Z,4.20
2019-05-23T19:46:55.984Z,4.22
2019-05-23T19:49:28.703Z,3.62
2019-05-23T19:52:01.512Z,3.80
2019-05-23T19:54:36.380Z,3.55
2019-05-23T19:57:09.295Z,3.60
2019-05-23T19:59:42.432Z,4.05
2019-05-23T20:02:43.216Z,3.85
2019-05-23T20:05:24.676Z,3.87
2019-05-23T20:07:57.543Z,3.67
2019-05-23T20:10:31.709Z,4.05
2019-05-23T20:15:35.893Z,4.28
2019-05-23T20:20:41.666Z,4.00
2019-05-23T20:23:16.040Z,3.77
2019-05-23T20:25:49.097Z,3.70
2019-05-23T20:28:21.671Z,3.65
2019-05-23T20:30:55.512Z,4.00
2019-05-23T20:33:28.648Z,3.67
2019-05-23T20:36:03.231Z,3.42
2019-05-23T20:38:37.548Z,4.00
2019-05-23T20:43:41.622Z,4.00
2019-05-23T20:46:14.317Z,3.90
2019-05-23T20:48:47.221Z,4.05
2019-05-23T20:51:19.986Z,4.10
2019-05-23T20:53:52.863Z,3.98
2019-05-23T20:56:25.522Z,4.20
2019-05-23T20:58:58.468Z,4.10
2019-05-23T21:01:35.004Z,4.30
2019-05-23T21:04:09.495Z,4.87
2019-05-23T21:06:42.396Z,4.12
2019-05-23T21:09:16.086Z,5.12
2019-05-23T21:11:49.064Z,4.72
2019-05-23T21:14:21.867Z,4.03
2019-05-23T21:16:54.755Z,4.45
2019-05-23T21:19:27.256Z,5.15
2019-05-23T21:22:00.325Z,5.17
2019-05-23T21:24:33.494Z,5.15
2019-05-23T21:29:37.635Z,5.47
2019-05-23T21:32:10.934Z,5.30
2019-05-23T21:37:15.248Z,5.15
2019-05-23T21:39:48.507Z,5.60
2019-05-23T21:42:21.529Z,5.83
2019-05-23T21:44:54.125Z,5.03
2019-05-23T21:47:26.245Z,5.33
2019-05-23T21:49:58.614Z,4.75
2019-05-23T21:52:31.580Z,5.12
2019-05-23T21:55:04.072Z,4.35
2019-05-23T21:57:36.481Z,4.55
2019-05-23T22:00:12.444Z,5.28
2019-05-23T22:02:45.994Z,4.80
2019-05-23T22:05:20.147Z,4.85
2019-05-23T22:07:52.628Z,4.62
2019-05-23T22:10:25.433Z,4.53
2019-05-23T22:13:04.534Z,4.62
2019-05-23T22:15:39.646Z,4.92
2019-05-23T22:18:12.725Z,4.85
2019-05-23T22:20:45.311Z,6.00
2019-05-23T22:23:18.332Z,6.12
2019-05-23T22:25:50.774Z,5.05
2019-05-23T22:28:23.846Z,5.08
2019-05-23T22:30:56.415Z,4.83
2019-05-23T22:33:31.248Z,5.17
2019-05-23T22:36:04.029Z,4.97
2019-05-23T22:38:37.168Z,5.35
2019-05-23T22:43:41.351Z,5.87
2019-05-23T22:46:14.322Z,5.05
2019-05-23T22:48:47.357Z,5.33
2019-05-23T22:51:20.017Z,5.05
2019-05-23T22:53:52.725Z,5.25
2019-05-23T22:56:25.577Z,4.92
2019-05-23T22:58:58.539Z,5.20
2019-05-23T23:01:32.242Z,5.08
2019-05-23T23:04:04.967Z,5.70
2019-05-23T23:06:37.861Z,4.65
2019-05-23T23:09:10.686Z,4.75
2019-05-23T23:11:43.573Z,4.78
2019-05-23T23:14:16.409Z,4.37
2019-05-23T23:16:50.073Z,5.03
2019-05-23T23:19:23.096Z,4.72
2019-05-23T23:21:55.760Z,4.85
2019-05-23T23:24:28.241Z,5.25
2019-05-23T23:27:02.939Z,5.15
2019-05-23T23:29:35.978Z,4.60
2019-05-23T23:32:09.711Z,4.37
2019-05-23T23:34:42.518Z,4.35
2019-05-23T23:37:15.593Z,4.15
2019-05-23T23:39:48.221Z,4.50
2019-05-23T23:42:21.962Z,4.60
2019-05-23T23:44:53.616Z,4.17
2019-05-23T23:47:43.958Z,4.15
2019-05-23T23:50:34.971Z,4.33
2019-05-23T23:53:25.356Z,4.28
2019-05-23T23:56:17.096Z,4.50
2019-05-23T23:58:49.185Z,4.75
